Navigator Of The Seas — C6FU4 — position and weather

sailwx.info

Track history (hours):
 
Tides and Currents Weather Stations Pressure Air Temp Water Temp Dewpoint Dewpoint Depression Visibility Wind Speed Wind Dir Waves Ship Positions

Navigator Of The Seas

Operator: Royal Caribbean Cruises Ltd

Last reported at 2017-Jun-29 00:32 UTC. Time now 2017-Jun-29 02:01 UTC.
Position N 57°19' E 011°30'.

Type: Passenger vessel. MMSI: 311478000.

Date/timePositionNaut miles runAvg speedWind from/ knotsBaromVisibWave heightAir tempDewpointWater temp
2017-Jun-29 00:32N 57°19' E 011°30'220.5
2017-Jun-29 00:26N 57°21' E 011°29'919.9
2017-Jun-28 23:59N 57°29' E 011°22'1020.2
2017-Jun-28 23:30N 57°37' E 011°14'1020.2
2017-Jun-28 23:00N 57°47' E 011°06'1020.2
2017-Jun-28 22:30N 57°56' E 010°57'1020.4
2017-Jun-28 22:00N 58°05' E 010°51'1020.5
2017-Jun-28 21:30N 58°15' E 010°43'1020.0
2017-Jun-28 21:00N 58°24' E 010°37'2519.2
2017-Jun-28 19:43N 58°49' E 010°32'419.3
2017-Jun-28 19:30N 58°53' E 010°33'1019.6
2017-Jun-28 19:01N 59°02' E 010°34'815.4
2017-Jun-28 18:30N 59°10' E 010°38'1020.3
2017-Jun-28 18:00N 59°20' E 010°35'1019.8
2017-Jun-28 17:30N 59°30' E 010°34'918.9
2017-Jun-28 17:00N 59°39' E 010°37'611.9
2017-Jun-28 16:30N 59°45' E 010°33'815.2
2017-Jun-28 16:00N 59°52' E 010°38'4 7.6
2017-Jun-28 15:30N 59°54' E 010°44'0 0.2
2017-Jun-28 15:00N 59°54' E 010°44'0 0.0
2017-Jun-28 14:00N 59°54' E 010°44'0 0.0
2017-Jun-28 13:30N 59°54' E 010°44'0 0.0
2017-Jun-28 13:00N 59°54' E 010°44'0 0.0
2017-Jun-28 12:30N 59°54' E 010°44'0 0.0
2017-Jun-28 12:00N 59°54' E 010°44'0 0.0
2017-Jun-28 11:30N 59°54' E 010°44'0 0.0
2017-Jun-28 11:00N 59°54' E 010°44'0 0.0
2017-Jun-28 10:30N 59°54' E 010°44'0 0.0
2017-Jun-28 10:00N 59°54' E 010°44'0 0.0
2017-Jun-28 09:30N 59°54' E 010°44'0 0.0
2017-Jun-28 09:00N 59°54' E 010°44'0 0.0
2017-Jun-28 08:30N 59°54' E 010°44'0 0.1
2017-Jun-28 07:59N 59°54' E 010°44'2 4.2
2017-Jun-28 07:30N 59°53' E 010°41'714.5
2017-Jun-28 07:01N 59°47' E 010°34'612.2
2017-Jun-28 06:30N 59°41' E 010°37'714.7
2017-Jun-28 06:01N 59°33' E 010°38'815.5
2017-Jun-28 05:31N 59°26' E 010°34'815.8
2017-Jun-28 05:01N 59°18' E 010°36'816.0
2017-Jun-28 04:31N 59°10' E 010°40'714.1
2017-Jun-28 04:00N 59°04' E 010°36'714.3
2017-Jun-28 03:31N 58°58' E 010°28'918.3
2017-Jun-28 03:01N 58°50' E 010°17'918.4
2017-Jun-28 02:30N 58°43' E 010°06'918.6
2017-Jun-28 02:01N 58°36' E 009°55'1019.4
2017-Jun-28 01:30N 58°28' E 009°44'1019.6
2017-Jun-28 01:01N 58°20' E 009°33'1119.3
2017-Jun-28 00:28N 58°12' E 009°20'1019.3
2017-Jun-27 23:57N 58°04' E 009°09'1019.5
2017-Jun-27 23:26N 57°56' E 008°59'2119.6
2017-Jun-27 22:23N 57°39' E 008°35'1421.4
2017-Jun-27 21:43N 57°27' E 008°21'521.2
2017-Jun-27 21:29N 57°23' E 008°17'24720.0
2017-Jun-27 09:07N 53°51' E 004°29'2421.0
2017-Jun-27 07:58N 53°36' E 003°58'1221.0
2017-Jun-27 07:25N 53°28' E 003°43'921.2
2017-Jun-27 06:59N 53°20' E 003°37'1121.5
2017-Jun-27 06:30N 53°10' E 003°30'1121.9
2017-Jun-27 05:59N 52°60' E 003°24'1122.1
2017-Jun-27 05:30N 52°49' E 003°17'1122.2
2017-Jun-27 05:00N 52°40' E 003°08'1122.4
2017-Jun-27 04:30N 52°30' E 002°59'1322.7
2017-Jun-27 03:55N 52°19' E 002°48'922.7
2017-Jun-27 03:30N 52°10' E 002°41'3021.6
2017-Jun-27 02:08N 51°42' E 002°29'421.6
2017-Jun-27 01:58N 51°39' E 002°25'1021.6
2017-Jun-27 01:30N 51°31' E 002°15'1121.5
2017-Jun-27 01:00N 51°23' E 002°03'1121.2
2017-Jun-27 00:31N 51°15' E 001°52'1121.0
2017-Jun-27 00:00N 51°07' E 001°41'1020.6
2017-Jun-26 23:30N 50°59' E 001°31'1019.9
2017-Jun-26 23:00N 50°50' E 001°24'1019.9
2017-Jun-26 22:30N 50°41' E 001°20'1020.2
2017-Jun-26 22:00N 50°34' E 001°07'1020.8
2017-Jun-26 21:30N 50°30' E 000°52'1020.9
2017-Jun-26 21:01N 50°27' E 000°37'1020.8
2017-Jun-26 20:30N 50°24' E 000°21'1020.6
2017-Jun-26 20:00N 50°21' E 000°05'1019.8
2017-Jun-26 19:30N 50°24' W 000°10'1020.1
2017-Jun-26 19:00N 50°28' W 000°24'1019.8
2017-Jun-26 18:30N 50°33' W 000°38'1019.4
2017-Jun-26 17:59N 50°38' W 000°51'714.4
2017-Jun-26 17:30N 50°43' W 000°59'816.5
2017-Jun-26 17:01N 50°46' W 001°11'5 9.8
2017-Jun-26 16:30N 50°48' W 001°17'510.8
2017-Jun-26 16:00N 50°52' W 001°23'2 3.5
2017-Jun-26 15:29N 50°54' W 001°25'0 0.0
2017-Jun-26 14:56N 50°54' W 001°25'0 0.0
2017-Jun-26 14:29N 50°54' W 001°25'0 0.0
2017-Jun-26 13:26N 50°54' W 001°25'0 0.0
2017-Jun-26 12:59N 50°54' W 001°25'0 0.0
2017-Jun-26 12:29N 50°54' W 001°25'0 0.0
2017-Jun-26 11:59N 50°54' W 001°25'0 0.0
2017-Jun-26 11:29N 50°54' W 001°25'0 0.0
2017-Jun-26 10:59N 50°54' W 001°25'0 0.0
2017-Jun-26 10:29N 50°54' W 001°25'0 0.0
2017-Jun-26 09:59N 50°54' W 001°25'0 0.0
2017-Jun-26 09:29N 50°54' W 001°25'0 0.0
2017-Jun-26 08:59N 50°54' W 001°25'0 0.0
2017-Jun-26 08:29N 50°54' W 001°25'0 0.0
2017-Jun-26 07:59N 50°54' W 001°25'0 0.0
2017-Jun-26 07:26N 50°54' W 001°25'0 0.0
2017-Jun-26 06:59N 50°54' W 001°25'0 0.0
2017-Jun-26 06:29N 50°54' W 001°25'0 0.0
2017-Jun-26 05:56N 50°54' W 001°25'0 0.0
2017-Jun-26 05:29N 50°54' W 001°25'0 0.0
2017-Jun-26 04:59N 50°54' W 001°25'0 0.0
2017-Jun-26 04:29N 50°54' W 001°25'0 0.2
2017-Jun-26 04:00N 50°54' W 001°25'3 5.7
2017-Jun-26 03:30N 50°52' W 001°22'5 9.3
2017-Jun-26 03:00N 50°48' W 001°18'5 9.3
2017-Jun-26 02:30N 50°46' W 001°11'816.4
2017-Jun-26 02:00N 50°43' W 000°59'5 9.2
2017-Jun-26 01:30N 50°39' W 000°55'917.0
2017-Jun-26 01:00N 50°37' W 000°42'918.2
2017-Jun-26 00:30N 50°35' W 000°28'918.5
2017-Jun-26 00:01N 50°33' W 000°13'1019.4
2017-Jun-25 23:30N 50°33' E 000°02'1019.0
2017-Jun-25 23:00N 50°36' E 000°16'918.4
2017-Jun-25 22:30N 50°38' E 000°30'918.3
2017-Jun-25 22:00N 50°42' E 000°43'918.4
2017-Jun-25 21:30N 50°47' E 000°55'1119.6
2017-Jun-25 20:58N 50°54' E 001°08'1021.0
2017-Jun-25 20:30N 51°01' E 001°19'1122.3
2017-Jun-25 20:00N 51°07' E 001°33'1121.6
2017-Jun-25 19:30N 51°14' E 001°47'1020.6
2017-Jun-25 19:00N 51°23' E 001°54'919.0
2017-Jun-25 18:31N 51°22' E 002°10'917.5
2017-Jun-25 18:00N 51°22' E 002°23'1019.0
2017-Jun-25 17:29N 51°23' E 002°39'510.9
2017-Jun-25 17:00N 51°22' E 002°48'815.9
2017-Jun-25 16:31N 51°24' E 002°60'714.1
2017-Jun-25 16:00N 51°22' E 003°11'2 3.8
2017-Jun-25 15:29N 51°20' E 003°12'0 0.0
2017-Jun-25 14:59N 51°20' E 003°12'0 0.0
2017-Jun-25 13:59N 51°20' E 003°12'0 0.0
2017-Jun-25 13:29N 51°20' E 003°12'0 0.0
2017-Jun-25 12:59N 51°20' E 003°12'0 0.0
2017-Jun-25 12:29N 51°20' E 003°12'0 0.0
2017-Jun-25 11:59N 51°20' E 003°12'0 0.0
2017-Jun-25 11:29N 51°20' E 003°12'0 0.0
2017-Jun-25 10:59N 51°20' E 003°12'0 0.0
2017-Jun-25 10:29N 51°20' E 003°12'0 0.0
2017-Jun-25 09:59N 51°20' E 003°12'0 0.0
2017-Jun-25 09:30N 51°20' E 003°12'0 0.0
2017-Jun-25 08:59N 51°20' E 003°12'0 0.0
2017-Jun-25 08:29N 51°20' E 003°12'0 0.0
2017-Jun-25 07:59N 51°20' E 003°12'2 4.2
2017-Jun-25 07:30N 51°22' E 003°11'612.7
2017-Jun-25 07:01N 51°24' E 003°01'815.9
2017-Jun-25 06:30N 51°22' E 002°49'5 9.5
2017-Jun-25 06:01N 51°24' E 002°43'816.6
2017-Jun-25 05:30N 51°29' E 002°53'1019.2
2017-Jun-25 05:00N 51°32' E 003°08'2038.9
2017-Jun-25 04:30N 51°51' E 003°17'1 1.4
2017-Jun-25 04:00N 51°51' E 003°17'1121.0
2017-Jun-25 03:29N 52°01' E 003°22'24820.2
2017-Jun-24 15:13N 55°46' E 006°19'521.0
2017-Jun-24 15:00N 55°50' E 006°23'1121.0
2017-Jun-24 14:29N 55°59' E 006°33'12620.0
2017-Jun-24 08:09N 57°35' E 009°04'5419.8
2017-Jun-24 05:26N 57°50' E 010°41'819.6
2017-Jun-24 05:00N 57°45' E 010°54'1020.4
2017-Jun-24 04:30N 57°38' E 011°08'1020.7
2017-Jun-24 04:00N 57°32' E 011°24'1121.1
2017-Jun-24 03:30N 57°22' E 011°31'1121.4
2017-Jun-24 03:00N 57°12' E 011°38'12017.3
2017-Jun-23 20:03N 55°13' E 011°06'120.3
2017-Jun-23 20:00N 55°12' E 011°06'1020.6
2017-Jun-23 19:30N 55°03' E 011°00'1020.9
2017-Jun-23 19:00N 54°54' E 010°51'1121.0
2017-Jun-23 18:30N 54°43' E 010°47'611.8
2017-Jun-23 18:00N 54°38' E 010°52'1019.5
2017-Jun-23 17:30N 54°36' E 011°08'917.8
2017-Jun-23 17:00N 54°33' E 011°23'917.0
2017-Jun-23 16:29N 54°29' E 011°37'919.2
2017-Jun-23 16:01N 54°26' E 011°52'1019.0
2017-Jun-23 15:31N 54°26' E 012°08'4918.9
2017-Jun-23 12:56N 54°55' E 013°16'1120.9
2017-Jun-23 12:24N 54°58' E 013°34'821.1
2017-Jun-23 12:00N 55°01' E 013°48'1120.8
2017-Jun-23 11:30N 55°05' E 014°05'1121.3
2017-Jun-23 11:00N 55°13' E 014°16'1021.1
2017-Jun-23 10:30N 55°22' E 014°28'1020.9
2017-Jun-23 10:01N 55°29' E 014°41'1121.5
2017-Jun-23 09:31N 55°34' E 014°57'1121.4
2017-Jun-23 09:00N 55°39' E 015°14'1121.3
2017-Jun-23 08:30N 55°44' E 015°31'1121.1
2017-Jun-23 08:00N 55°49' E 015°48'1121.1
2017-Jun-23 07:30N 55°54' E 016°04'1121.2
2017-Jun-23 07:00N 55°59' E 016°21'1121.2
2017-Jun-23 06:31N 56°05' E 016°37'1121.0
2017-Jun-23 06:00N 56°11' E 016°52'1020.8
2017-Jun-23 05:31N 56°17' E 017°07'1020.9
2017-Jun-23 05:00N 56°24' E 017°22'1020.8
2017-Jun-23 04:30N 56°30' E 017°37'1020.8
2017-Jun-23 04:01N 56°36' E 017°52'1020.8
2017-Jun-23 03:31N 56°42' E 018°07'1020.6
2017-Jun-23 03:00N 56°49' E 018°22'1020.9
2017-Jun-23 02:30N 56°56' E 018°36'1121.0
2017-Jun-23 01:58N 57°04' E 018°51'1021.2
2017-Jun-23 01:30N 57°11' E 019°03'4721.1
2017-Jun-22 23:17N 57°49' E 019°55'621.6
2017-Jun-22 23:00N 57°54' E 020°01'1121.7
2017-Jun-22 22:30N 58°02' E 020°13'1121.6
2017-Jun-22 22:00N 58°11' E 020°24'1121.4
2017-Jun-22 21:29N 58°20' E 020°37'1221.3
2017-Jun-22 20:56N 58°30' E 020°49'920.6
2017-Jun-22 20:30N 58°38' E 020°58'1021.3
2017-Jun-22 20:00N 58°47' E 021°08'1121.0
2017-Jun-22 19:30N 58°56' E 021°19'1121.4
2017-Jun-22 19:00N 59°05' E 021°31'1121.2
2017-Jun-22 18:30N 59°13' E 021°44'1121.1
2017-Jun-22 18:00N 59°19' E 021°60'1020.7
2017-Jun-22 17:30N 59°26' E 022°16'1020.0
2017-Jun-22 17:00N 59°30' E 022°34'1020.4
2017-Jun-22 16:30N 59°33' E 022°53'1020.4
2017-Jun-22 16:00N 59°36' E 023°12'1020.3
2017-Jun-22 15:30N 59°39' E 023°32'1020.0
2017-Jun-22 15:00N 59°42' E 023°51'2019.9
2017-Jun-22 14:00N 59°49' E 024°27'1020.0
2017-Jun-22 13:30N 59°55' E 024°43'917.6
2017-Jun-22 13:00N 60°01' E 024°56'612.5
2017-Jun-22 12:31N 60°07' E 024°54'2 3.3
2017-Jun-22 12:00N 60°09' E 024°55'0 0.0
2017-Jun-22 11:30N 60°09' E 024°55'0 0.0
2017-Jun-22 11:00N 60°09' E 024°55'0 0.0
2017-Jun-22 10:30N 60°09' E 024°55'0 0.0
2017-Jun-22 10:00N 60°09' E 024°55'0 0.0
2017-Jun-22 09:30N 60°09' E 024°55'0 0.0
2017-Jun-22 09:00N 60°09' E 024°55'0 0.0
2017-Jun-22 08:30N 60°09' E 024°55'0 0.0
2017-Jun-22 08:00N 60°09' E 024°55'0 0.0
2017-Jun-22 07:30N 60°09' E 024°55'0 0.0
2017-Jun-22 07:00N 60°09' E 024°55'0 0.0
2017-Jun-22 06:30N 60°09' E 024°55'0 0.0
2017-Jun-22 06:00N 60°09' E 024°55'0 0.0
2017-Jun-22 05:30N 60°09' E 024°55'0 0.0
2017-Jun-22 05:00N 60°09' E 024°55'0 0.0
2017-Jun-22 04:30N 60°09' E 024°55'0 0.0
2017-Jun-22 04:00N 60°09' E 024°55'0 0.0
2017-Jun-22 03:30N 60°09' E 024°55'1 2.2
2017-Jun-22 03:00N 60°08' E 024°54'714.7
2017-Jun-22 02:30N 60°01' E 024°56'613.0
2017-Jun-22 02:00N 59°57' E 025°06'714.2
2017-Jun-22 01:30N 59°55' E 025°20'714.1
2017-Jun-22 01:00N 59°54' E 025°34'816.6
2017-Jun-22 00:30N 59°56' E 025°51'816.7
2017-Jun-22 00:00N 59°58' E 026°07'917.0
2017-Jun-21 23:30N 59°60' E 026°23'917.1
2017-Jun-21 23:01N 60°01' E 026°40'917.3
2017-Jun-21 22:30N 59°60' E 026°57'816.9
2017-Jun-21 22:00N 60°02' E 027°13'917.6
2017-Jun-21 21:31N 60°07' E 027°28'917.7
2017-Jun-21 21:00N 60°12' E 027°43'817.0
2017-Jun-21 20:30N 60°10' E 028°00'917.2
2017-Jun-21 20:00N 60°08' E 028°17'917.1
2017-Jun-21 19:30N 60°03' E 028°31'917.2
2017-Jun-21 19:01N 60°03' E 028°48'917.3
2017-Jun-21 18:30N 60°02' E 029°06'816.9
2017-Jun-21 18:00N 60°02' E 029°23'510.2
2017-Jun-21 17:30N 60°01' E 029°33'611.6
2017-Jun-21 17:00N 59°59' E 029°44'5 9.9
2017-Jun-21 16:30N 59°57' E 029°52'510.2
2017-Jun-21 16:00N 59°56' E 030°02'4 8.8
2017-Jun-21 15:30N 59°57' E 030°11'0 0.4
2017-Jun-21 14:59N 59°57' E 030°11'0 0.0
2017-Jun-21 13:59N 59°57' E 030°11'0 0.0
2017-Jun-21 13:29N 59°57' E 030°11'0 0.0
2017-Jun-21 12:59N 59°57' E 030°11'0 0.0
2017-Jun-21 12:29N 59°57' E 030°11'0 0.0
2017-Jun-21 11:59N 59°57' E 030°11'0 0.0
2017-Jun-21 11:29N 59°57' E 030°11'0 0.0
2017-Jun-21 10:56N 59°57' E 030°11'0 0.0
2017-Jun-21 10:29N 59°57' E 030°11'0 0.0
2017-Jun-21 09:59N 59°57' E 030°11'0 0.0
2017-Jun-21 09:29N 59°57' E 030°11'0 0.0
2017-Jun-21 08:59N 59°57' E 030°11'0 0.0
2017-Jun-21 08:29N 59°57' E 030°11'0 0.0
2017-Jun-21 07:59N 59°57' E 030°11'0 0.0
2017-Jun-21 07:29N 59°57' E 030°11'0 0.0
2017-Jun-21 06:59N 59°57' E 030°11'0 0.0
2017-Jun-21 06:29N 59°57' E 030°11'0 0.0
2017-Jun-21 05:59N 59°57' E 030°11'0 0.0
2017-Jun-21 05:29N 59°57' E 030°11'0 0.0
2017-Jun-21 04:59N 59°57' E 030°11'0 0.0
2017-Jun-21 04:29N 59°57' E 030°11'0 0.0
2017-Jun-21 03:59N 59°57' E 030°11'0 0.0
2017-Jun-21 03:29N 59°57' E 030°11'0 0.0
2017-Jun-21 02:59N 59°57' E 030°11'0 0.0
2017-Jun-21 02:29N 59°57' E 030°11'0 0.0
2017-Jun-21 01:59N 59°57' E 030°11'0 0.0
2017-Jun-21 01:29N 59°57' E 030°11'0 0.0
2017-Jun-21 00:59N 59°57' E 030°11'0 0.0
2017-Jun-21 00:29N 59°57' E 030°11'0 0.0
2017-Jun-20 23:59N 59°57' E 030°11'0 0.0
2017-Jun-20 23:29N 59°57' E 030°11'0 0.0
2017-Jun-20 22:59N 59°57' E 030°11'0 0.0
2017-Jun-20 22:29N 59°57' E 030°11'0 0.0
2017-Jun-20 21:59N 59°57' E 030°11'0 0.0
2017-Jun-20 21:29N 59°57' E 030°11'0 0.0
2017-Jun-20 20:59N 59°57' E 030°11'0 0.0
2017-Jun-20 20:29N 59°57' E 030°11'0 0.0
2017-Jun-20 19:59N 59°57' E 030°11'0 0.0
2017-Jun-20 19:29N 59°57' E 030°11'0 0.0
2017-Jun-20 18:59N 59°57' E 030°11'0 0.0
2017-Jun-20 18:29N 59°57' E 030°11'0 0.0
2017-Jun-20 17:59N 59°57' E 030°11'0 0.0
2017-Jun-20 17:29N 59°57' E 030°11'0 0.0
2017-Jun-20 16:59N 59°57' E 030°11'0 0.0
2017-Jun-20 16:29N 59°57' E 030°11'0 0.0
2017-Jun-20 15:59N 59°57' E 030°11'0 0.0
2017-Jun-20 15:29N 59°57' E 030°11'0 0.0
2017-Jun-20 14:59N 59°57' E 030°11'0 0.0
2017-Jun-20 13:56N 59°57' E 030°11'0 0.0
2017-Jun-20 13:29N 59°57' E 030°11'0 0.0
2017-Jun-20 12:59N 59°57' E 030°11'0 0.0
2017-Jun-20 12:29N 59°57' E 030°11'0 0.0
2017-Jun-20 11:59N 59°57' E 030°11'0 0.0
2017-Jun-20 11:29N 59°57' E 030°11'0 0.0
2017-Jun-20 10:59N 59°57' E 030°11'0 0.0
2017-Jun-20 10:29N 59°57' E 030°11'0 0.0
2017-Jun-20 09:59N 59°57' E 030°11'0 0.0
2017-Jun-20 09:29N 59°57' E 030°11'0 0.0
2017-Jun-20 08:59N 59°57' E 030°11'0 0.0
2017-Jun-20 08:29N 59°57' E 030°11'0 0.0
2017-Jun-20 07:59N 59°57' E 030°11'0 0.0
2017-Jun-20 07:29N 59°57' E 030°11'0 0.0
2017-Jun-20 06:59N 59°57' E 030°11'0 0.0
2017-Jun-20 06:29N 59°57' E 030°11'0 0.0
2017-Jun-20 05:59N 59°57' E 030°11'0 0.0
2017-Jun-20 05:29N 59°57' E 030°11'0 0.0
2017-Jun-20 04:59N 59°57' E 030°11'0 0.0
2017-Jun-20 04:29N 59°57' E 030°11'0 0.0
2017-Jun-20 03:59N 59°57' E 030°11'0 0.2
2017-Jun-20 03:31N 59°57' E 030°11'3 5.5
2017-Jun-20 03:00N 59°56' E 030°06'4 9.0
2017-Jun-20 02:30N 59°56' E 029°57'510.7
2017-Jun-20 02:01N 59°58' E 029°47'5 9.2
2017-Jun-20 01:30N 59°60' E 029°39'611.5
2017-Jun-20 01:00N 60°01' E 029°28'815.2
2017-Jun-20 00:30N 60°02' E 029°12'918.6
2017-Jun-20 00:00N 60°02' E 028°54'918.6
2017-Jun-19 23:30N 60°01' E 028°35'918.3
2017-Jun-19 23:01N 60°06' E 028°19'918.2
2017-Jun-19 22:30N 60°09' E 028°02'918.2
2017-Jun-19 22:01N 60°10' E 027°44'918.8
2017-Jun-19 21:30N 60°05' E 027°28'918.8
2017-Jun-19 21:01N 60°00' E 027°12'917.8
2017-Jun-19 20:30N 59°58' E 026°54'918.5
2017-Jun-19 20:01N 59°59' E 026°36'918.7
2017-Jun-19 19:31N 59°57' E 026°18'1019.1
2017-Jun-19 19:01N 59°54' E 025°59'1019.0
2017-Jun-19 18:30N 59°52' E 025°41'919.0
2017-Jun-19 18:01N 59°50' E 025°22'1019.0
2017-Jun-19 17:30N 59°48' E 025°04'918.6
2017-Jun-19 17:01N 59°43' E 024°49'815.1
2017-Jun-19 16:31N 59°36' E 024°41'714.8
2017-Jun-19 16:01N 59°29' E 024°46'2 4.2
2017-Jun-19 15:30N 59°27' E 024°46'0 0.0
2017-Jun-19 15:00N 59°27' E 024°46'0 0.0
2017-Jun-19 14:00N 59°27' E 024°46'0 0.0
2017-Jun-19 13:30N 59°27' E 024°46'0 0.0
2017-Jun-19 13:00N 59°27' E 024°46'0 0.0
2017-Jun-19 12:30N 59°27' E 024°46'0 0.0
2017-Jun-19 11:54N 59°27' E 024°46'0 0.0
2017-Jun-19 11:30N 59°27' E 024°46'0 0.0
2017-Jun-19 11:00N 59°27' E 024°46'0 0.0
2017-Jun-19 10:30N 59°27' E 024°46'0 0.0
2017-Jun-19 10:00N 59°27' E 024°46'0 0.0
2017-Jun-19 09:30N 59°27' E 024°46'0 0.0
2017-Jun-19 09:00N 59°27' E 024°46'0 0.0
2017-Jun-19 08:30N 59°27' E 024°46'0 0.0
2017-Jun-19 08:00N 59°27' E 024°46'0 0.0
2017-Jun-19 07:30N 59°27' E 024°46'3 6.4
2017-Jun-19 07:01N 59°30' E 024°45'815.8
2017-Jun-19 06:30N 59°37' E 024°37'714.8
2017-Jun-19 06:01N 59°39' E 024°23'917.9
2017-Jun-19 05:30N 59°38' E 024°06'918.2
2017-Jun-19 05:00N 59°35' E 023°48'917.9
2017-Jun-19 04:31N 59°33' E 023°31'918.0
2017-Jun-19 04:01N 59°30' E 023°14'918.1
2017-Jun-19 03:30N 59°28' E 022°57'918.7
2017-Jun-19 03:00N 59°25' E 022°40'918.6
2017-Jun-19 02:30N 59°20' E 022°24'919.0
2017-Jun-19 02:00N 59°15' E 022°09'201289.2
2017-Jun-19 02:00N 59°00' E 021°42'1122.2 270 / 81013.0 5.4 15.011.613.0
2017-Jun-19 01:30N 59°09' E 021°55'918.8
2017-Jun-19 01:00N 59°02' E 021°42'  
Track history (hours):
 
Tides and Currents Weather Stations Pressure Air Temp Water Temp Dewpoint Dewpoint Depression Visibility Wind Speed Wind Dir Waves Ship Positions

Navigator Of The Seas

Operator: Royal Caribbean Cruises Ltd

Last reported at 2017-Jun-29 00:32 UTC. Time now 2017-Jun-29 02:01 UTC.
Position N 57°19' E 011°30'.

Type: Passenger vessel. MMSI: 311478000.

Date/timePositionNaut miles runAvg speedWind from/ knotsBaromVisibWave heightAir tempDewpointWater temp
2017-Jun-29 00:32N 57°19' E 011°30'220.5
2017-Jun-29 00:26N 57°21' E 011°29'919.9
2017-Jun-28 23:59N 57°29' E 011°22'1020.2
2017-Jun-28 23:30N 57°37' E 011°14'1020.2
2017-Jun-28 23:00N 57°47' E 011°06'1020.2
2017-Jun-28 22:30N 57°56' E 010°57'1020.4
2017-Jun-28 22:00N 58°05' E 010°51'1020.5
2017-Jun-28 21:30N 58°15' E 010°43'1020.0
2017-Jun-28 21:00N 58°24' E 010°37'2519.2
2017-Jun-28 19:43N 58°49' E 010°32'419.3
2017-Jun-28 19:30N 58°53' E 010°33'1019.6
2017-Jun-28 19:01N 59°02' E 010°34'815.4
2017-Jun-28 18:30N 59°10' E 010°38'1020.3
2017-Jun-28 18:00N 59°20' E 010°35'1019.8
2017-Jun-28 17:30N 59°30' E 010°34'918.9
2017-Jun-28 17:00N 59°39' E 010°37'611.9
2017-Jun-28 16:30N 59°45' E 010°33'815.2
2017-Jun-28 16:00N 59°52' E 010°38'4 7.6
2017-Jun-28 15:30N 59°54' E 010°44'0 0.2
2017-Jun-28 15:00N 59°54' E 010°44'0 0.0
2017-Jun-28 14:00N 59°54' E 010°44'0 0.0
2017-Jun-28 13:30N 59°54' E 010°44'0 0.0
2017-Jun-28 13:00N 59°54' E 010°44'0 0.0
2017-Jun-28 12:30N 59°54' E 010°44'0 0.0
2017-Jun-28 12:00N 59°54' E 010°44'0 0.0
2017-Jun-28 11:30N 59°54' E 010°44'0 0.0
2017-Jun-28 11:00N 59°54' E 010°44'0 0.0
2017-Jun-28 10:30N 59°54' E 010°44'0 0.0
2017-Jun-28 10:00N 59°54' E 010°44'0 0.0
2017-Jun-28 09:30N 59°54' E 010°44'0 0.0
2017-Jun-28 09:00N 59°54' E 010°44'0 0.0
2017-Jun-28 08:30N 59°54' E 010°44'0 0.1
2017-Jun-28 07:59N 59°54' E 010°44'2 4.2
2017-Jun-28 07:30N 59°53' E 010°41'714.5
2017-Jun-28 07:01N 59°47' E 010°34'612.2
2017-Jun-28 06:30N 59°41' E 010°37'714.7
2017-Jun-28 06:01N 59°33' E 010°38'815.5
2017-Jun-28 05:31N 59°26' E 010°34'815.8
2017-Jun-28 05:01N 59°18' E 010°36'816.0
2017-Jun-28 04:31N 59°10' E 010°40'714.1
2017-Jun-28 04:00N 59°04' E 010°36'714.3
2017-Jun-28 03:31N 58°58' E 010°28'918.3
2017-Jun-28 03:01N 58°50' E 010°17'918.4
2017-Jun-28 02:30N 58°43' E 010°06'918.6
2017-Jun-28 02:01N 58°36' E 009°55'1019.4
2017-Jun-28 01:30N 58°28' E 009°44'1019.6
2017-Jun-28 01:01N 58°20' E 009°33'1119.3
2017-Jun-28 00:28N 58°12' E 009°20'1019.3
2017-Jun-27 23:57N 58°04' E 009°09'1019.5
2017-Jun-27 23:26N 57°56' E 008°59'2119.6
2017-Jun-27 22:23N 57°39' E 008°35'1421.4
2017-Jun-27 21:43N 57°27' E 008°21'521.2
2017-Jun-27 21:29N 57°23' E 008°17'24720.0
2017-Jun-27 09:07N 53°51' E 004°29'2421.0
2017-Jun-27 07:58N 53°36' E 003°58'1221.0
2017-Jun-27 07:25N 53°28' E 003°43'921.2
2017-Jun-27 06:59N 53°20' E 003°37'1121.5
2017-Jun-27 06:30N 53°10' E 003°30'1121.9
2017-Jun-27 05:59N 52°60' E 003°24'1122.1
2017-Jun-27 05:30N 52°49' E 003°17'1122.2
2017-Jun-27 05:00N 52°40' E 003°08'1122.4
2017-Jun-27 04:30N 52°30' E 002°59'1322.7
2017-Jun-27 03:55N 52°19' E 002°48'922.7
2017-Jun-27 03:30N 52°10' E 002°41'3021.6
2017-Jun-27 02:08N 51°42' E 002°29'421.6
2017-Jun-27 01:58N 51°39' E 002°25'1021.6
2017-Jun-27 01:30N 51°31' E 002°15'1121.5
2017-Jun-27 01:00N 51°23' E 002°03'1121.2
2017-Jun-27 00:31N 51°15' E 001°52'1121.0
2017-Jun-27 00:00N 51°07' E 001°41'1020.6
2017-Jun-26 23:30N 50°59' E 001°31'1019.9
2017-Jun-26 23:00N 50°50' E 001°24'1019.9
2017-Jun-26 22:30N 50°41' E 001°20'1020.2
2017-Jun-26 22:00N 50°34' E 001°07'1020.8
2017-Jun-26 21:30N 50°30' E 000°52'1020.9
2017-Jun-26 21:01N 50°27' E 000°37'1020.8
2017-Jun-26 20:30N 50°24' E 000°21'1020.6
2017-Jun-26 20:00N 50°21' E 000°05'1019.8
2017-Jun-26 19:30N 50°24' W 000°10'1020.1
2017-Jun-26 19:00N 50°28' W 000°24'1019.8
2017-Jun-26 18:30N 50°33' W 000°38'1019.4
2017-Jun-26 17:59N 50°38' W 000°51'714.4
2017-Jun-26 17:30N 50°43' W 000°59'816.5
2017-Jun-26 17:01N 50°46' W 001°11'5 9.8
2017-Jun-26 16:30N 50°48' W 001°17'510.8
2017-Jun-26 16:00N 50°52' W 001°23'2 3.5
2017-Jun-26 15:29N 50°54' W 001°25'0 0.0
2017-Jun-26 14:56N 50°54' W 001°25'0 0.0
2017-Jun-26 14:29N 50°54' W 001°25'0 0.0
2017-Jun-26 13:26N 50°54' W 001°25'0 0.0
2017-Jun-26 12:59N 50°54' W 001°25'0 0.0
2017-Jun-26 12:29N 50°54' W 001°25'0 0.0
2017-Jun-26 11:59N 50°54' W 001°25'0 0.0
2017-Jun-26 11:29N 50°54' W 001°25'0 0.0
2017-Jun-26 10:59N 50°54' W 001°25'0 0.0
2017-Jun-26 10:29N 50°54' W 001°25'0 0.0
2017-Jun-26 09:59N 50°54' W 001°25'0 0.0
2017-Jun-26 09:29N 50°54' W 001°25'0 0.0
2017-Jun-26 08:59N 50°54' W 001°25'0 0.0
2017-Jun-26 08:29N 50°54' W 001°25'0 0.0
2017-Jun-26 07:59N 50°54' W 001°25'0 0.0
2017-Jun-26 07:26N 50°54' W 001°25'0 0.0
2017-Jun-26 06:59N 50°54' W 001°25'0 0.0
2017-Jun-26 06:29N 50°54' W 001°25'0 0.0
2017-Jun-26 05:56N 50°54' W 001°25'0 0.0
2017-Jun-26 05:29N 50°54' W 001°25'0 0.0
2017-Jun-26 04:59N 50°54' W 001°25'0 0.0
2017-Jun-26 04:29N 50°54' W 001°25'0 0.2
2017-Jun-26 04:00N 50°54' W 001°25'3 5.7
2017-Jun-26 03:30N 50°52' W 001°22'5 9.3
2017-Jun-26 03:00N 50°48' W 001°18'5 9.3
2017-Jun-26 02:30N 50°46' W 001°11'816.4
2017-Jun-26 02:00N 50°43' W 000°59'5 9.2
2017-Jun-26 01:30N 50°39' W 000°55'917.0
2017-Jun-26 01:00N 50°37' W 000°42'918.2
2017-Jun-26 00:30N 50°35' W 000°28'918.5
2017-Jun-26 00:01N 50°33' W 000°13'1019.4
2017-Jun-25 23:30N 50°33' E 000°02'1019.0
2017-Jun-25 23:00N 50°36' E 000°16'918.4
2017-Jun-25 22:30N 50°38' E 000°30'918.3
2017-Jun-25 22:00N 50°42' E 000°43'918.4
2017-Jun-25 21:30N 50°47' E 000°55'1119.6
2017-Jun-25 20:58N 50°54' E 001°08'1021.0
2017-Jun-25 20:30N 51°01' E 001°19'1122.3
2017-Jun-25 20:00N 51°07' E 001°33'1121.6
2017-Jun-25 19:30N 51°14' E 001°47'1020.6
2017-Jun-25 19:00N 51°23' E 001°54'919.0
2017-Jun-25 18:31N 51°22' E 002°10'917.5
2017-Jun-25 18:00N 51°22' E 002°23'1019.0
2017-Jun-25 17:29N 51°23' E 002°39'510.9
2017-Jun-25 17:00N 51°22' E 002°48'815.9
2017-Jun-25 16:31N 51°24' E 002°60'714.1
2017-Jun-25 16:00N 51°22' E 003°11'2 3.8
2017-Jun-25 15:29N 51°20' E 003°12'0 0.0
2017-Jun-25 14:59N 51°20' E 003°12'0 0.0
2017-Jun-25 13:59N 51°20' E 003°12'0 0.0
2017-Jun-25 13:29N 51°20' E 003°12'0 0.0
2017-Jun-25 12:59N 51°20' E 003°12'0 0.0
2017-Jun-25 12:29N 51°20' E 003°12'0 0.0
2017-Jun-25 11:59N 51°20' E 003°12'0 0.0
2017-Jun-25 11:29N 51°20' E 003°12'0 0.0
2017-Jun-25 10:59N 51°20' E 003°12'0 0.0
2017-Jun-25 10:29N 51°20' E 003°12'0 0.0
2017-Jun-25 09:59N 51°20' E 003°12'0 0.0
2017-Jun-25 09:30N 51°20' E 003°12'0 0.0
2017-Jun-25 08:59N 51°20' E 003°12'0 0.0
2017-Jun-25 08:29N 51°20' E 003°12'0 0.0
2017-Jun-25 07:59N 51°20' E 003°12'2 4.2
2017-Jun-25 07:30N 51°22' E 003°11'612.7
2017-Jun-25 07:01N 51°24' E 003°01'815.9
2017-Jun-25 06:30N 51°22' E 002°49'5 9.5
2017-Jun-25 06:01N 51°24' E 002°43'816.6
2017-Jun-25 05:30N 51°29' E 002°53'1019.2
2017-Jun-25 05:00N 51°32' E 003°08'2038.9
2017-Jun-25 04:30N 51°51' E 003°17'1 1.4
2017-Jun-25 04:00N 51°51' E 003°17'1121.0
2017-Jun-25 03:29N 52°01' E 003°22'24820.2
2017-Jun-24 15:13N 55°46' E 006°19'521.0
2017-Jun-24 15:00N 55°50' E 006°23'1121.0
2017-Jun-24 14:29N 55°59' E 006°33'12620.0
2017-Jun-24 08:09N 57°35' E 009°04'5419.8
2017-Jun-24 05:26N 57°50' E 010°41'819.6
2017-Jun-24 05:00N 57°45' E 010°54'1020.4
2017-Jun-24 04:30N 57°38' E 011°08'1020.7
2017-Jun-24 04:00N 57°32' E 011°24'1121.1
2017-Jun-24 03:30N 57°22' E 011°31'1121.4
2017-Jun-24 03:00N 57°12' E 011°38'12017.3
2017-Jun-23 20:03N 55°13' E 011°06'120.3
2017-Jun-23 20:00N 55°12' E 011°06'1020.6
2017-Jun-23 19:30N 55°03' E 011°00'1020.9
2017-Jun-23 19:00N 54°54' E 010°51'1121.0
2017-Jun-23 18:30N 54°43' E 010°47'611.8
2017-Jun-23 18:00N 54°38' E 010°52'1019.5
2017-Jun-23 17:30N 54°36' E 011°08'917.8
2017-Jun-23 17:00N 54°33' E 011°23'917.0
2017-Jun-23 16:29N 54°29' E 011°37'919.2
2017-Jun-23 16:01N 54°26' E 011°52'1019.0
2017-Jun-23 15:31N 54°26' E 012°08'4918.9
2017-Jun-23 12:56N 54°55' E 013°16'1120.9
2017-Jun-23 12:24N 54°58' E 013°34'821.1
2017-Jun-23 12:00N 55°01' E 013°48'1120.8
2017-Jun-23 11:30N 55°05' E 014°05'1121.3
2017-Jun-23 11:00N 55°13' E 014°16'1021.1
2017-Jun-23 10:30N 55°22' E 014°28'1020.9
2017-Jun-23 10:01N 55°29' E 014°41'1121.5
2017-Jun-23 09:31N 55°34' E 014°57'1121.4
2017-Jun-23 09:00N 55°39' E 015°14'1121.3
2017-Jun-23 08:30N 55°44' E 015°31'1121.1
2017-Jun-23 08:00N 55°49' E 015°48'1121.1
2017-Jun-23 07:30N 55°54' E 016°04'1121.2
2017-Jun-23 07:00N 55°59' E 016°21'1121.2
2017-Jun-23 06:31N 56°05' E 016°37'1121.0
2017-Jun-23 06:00N 56°11' E 016°52'1020.8
2017-Jun-23 05:31N 56°17' E 017°07'1020.9
2017-Jun-23 05:00N 56°24' E 017°22'1020.8
2017-Jun-23 04:30N 56°30' E 017°37'1020.8
2017-Jun-23 04:01N 56°36' E 017°52'1020.8
2017-Jun-23 03:31N 56°42' E 018°07'1020.6
2017-Jun-23 03:00N 56°49' E 018°22'1020.9
2017-Jun-23 02:30N 56°56' E 018°36'1121.0
2017-Jun-23 01:58N 57°04' E 018°51'1021.2
2017-Jun-23 01:30N 57°11' E 019°03'4721.1
2017-Jun-22 23:17N 57°49' E 019°55'621.6
2017-Jun-22 23:00N 57°54' E 020°01'1121.7
2017-Jun-22 22:30N 58°02' E 020°13'1121.6
2017-Jun-22 22:00N 58°11' E 020°24'1121.4
2017-Jun-22 21:29N 58°20' E 020°37'1221.3
2017-Jun-22 20:56N 58°30' E 020°49'920.6
2017-Jun-22 20:30N 58°38' E 020°58'1021.3
2017-Jun-22 20:00N 58°47' E 021°08'1121.0
2017-Jun-22 19:30N 58°56' E 021°19'1121.4
2017-Jun-22 19:00N 59°05' E 021°31'1121.2
2017-Jun-22 18:30N 59°13' E 021°44'1121.1
2017-Jun-22 18:00N 59°19' E 021°60'1020.7
2017-Jun-22 17:30N 59°26' E 022°16'1020.0
2017-Jun-22 17:00N 59°30' E 022°34'1020.4
2017-Jun-22 16:30N 59°33' E 022°53'1020.4
2017-Jun-22 16:00N 59°36' E 023°12'1020.3
2017-Jun-22 15:30N 59°39' E 023°32'1020.0
2017-Jun-22 15:00N 59°42' E 023°51'2019.9
2017-Jun-22 14:00N 59°49' E 024°27'1020.0
2017-Jun-22 13:30N 59°55' E 024°43'917.6
2017-Jun-22 13:00N 60°01' E 024°56'612.5
2017-Jun-22 12:31N 60°07' E 024°54'2 3.3
2017-Jun-22 12:00N 60°09' E 024°55'0 0.0
2017-Jun-22 11:30N 60°09' E 024°55'0 0.0
2017-Jun-22 11:00N 60°09' E 024°55'0 0.0
2017-Jun-22 10:30N 60°09' E 024°55'0 0.0
2017-Jun-22 10:00N 60°09' E 024°55'0 0.0
2017-Jun-22 09:30N 60°09' E 024°55'0 0.0
2017-Jun-22 09:00N 60°09' E 024°55'0 0.0
2017-Jun-22 08:30N 60°09' E 024°55'0 0.0
2017-Jun-22 08:00N 60°09' E 024°55'0 0.0
2017-Jun-22 07:30N 60°09' E 024°55'0 0.0
2017-Jun-22 07:00N 60°09' E 024°55'0 0.0
2017-Jun-22 06:30N 60°09' E 024°55'0 0.0
2017-Jun-22 06:00N 60°09' E 024°55'0 0.0
2017-Jun-22 05:30N 60°09' E 024°55'0 0.0
2017-Jun-22 05:00N 60°09' E 024°55'0 0.0
2017-Jun-22 04:30N 60°09' E 024°55'0 0.0
2017-Jun-22 04:00N 60°09' E 024°55'0 0.0
2017-Jun-22 03:30N 60°09' E 024°55'1 2.2
2017-Jun-22 03:00N 60°08' E 024°54'714.7
2017-Jun-22 02:30N 60°01' E 024°56'613.0
2017-Jun-22 02:00N 59°57' E 025°06'714.2
2017-Jun-22 01:30N 59°55' E 025°20'714.1
2017-Jun-22 01:00N 59°54' E 025°34'816.6
2017-Jun-22 00:30N 59°56' E 025°51'816.7
2017-Jun-22 00:00N 59°58' E 026°07'917.0
2017-Jun-21 23:30N 59°60' E 026°23'917.1
2017-Jun-21 23:01N 60°01' E 026°40'917.3
2017-Jun-21 22:30N 59°60' E 026°57'816.9
2017-Jun-21 22:00N 60°02' E 027°13'917.6
2017-Jun-21 21:31N 60°07' E 027°28'917.7
2017-Jun-21 21:00N 60°12' E 027°43'817.0
2017-Jun-21 20:30N 60°10' E 028°00'917.2
2017-Jun-21 20:00N 60°08' E 028°17'917.1
2017-Jun-21 19:30N 60°03' E 028°31'917.2
2017-Jun-21 19:01N 60°03' E 028°48'917.3
2017-Jun-21 18:30N 60°02' E 029°06'816.9
2017-Jun-21 18:00N 60°02' E 029°23'510.2
2017-Jun-21 17:30N 60°01' E 029°33'611.6
2017-Jun-21 17:00N 59°59' E 029°44'5 9.9
2017-Jun-21 16:30N 59°57' E 029°52'510.2
2017-Jun-21 16:00N 59°56' E 030°02'4 8.8
2017-Jun-21 15:30N 59°57' E 030°11'0 0.4
2017-Jun-21 14:59N 59°57' E 030°11'0 0.0
2017-Jun-21 13:59N 59°57' E 030°11'0 0.0
2017-Jun-21 13:29N 59°57' E 030°11'0 0.0
2017-Jun-21 12:59N 59°57' E 030°11'0 0.0
2017-Jun-21 12:29N 59°57' E 030°11'0 0.0
2017-Jun-21 11:59N 59°57' E 030°11'0 0.0
2017-Jun-21 11:29N 59°57' E 030°11'0 0.0
2017-Jun-21 10:56N 59°57' E 030°11'0 0.0
2017-Jun-21 10:29N 59°57' E 030°11'0 0.0
2017-Jun-21 09:59N 59°57' E 030°11'0 0.0
2017-Jun-21 09:29N 59°57' E 030°11'0 0.0
2017-Jun-21 08:59N 59°57' E 030°11'0 0.0
2017-Jun-21 08:29N 59°57' E 030°11'0 0.0
2017-Jun-21 07:59N 59°57' E 030°11'0 0.0
2017-Jun-21 07:29N 59°57' E 030°11'0 0.0
2017-Jun-21 06:59N 59°57' E 030°11'0 0.0
2017-Jun-21 06:29N 59°57' E 030°11'0 0.0
2017-Jun-21 05:59N 59°57' E 030°11'0 0.0
2017-Jun-21 05:29N 59°57' E 030°11'0 0.0
2017-Jun-21 04:59N 59°57' E 030°11'0 0.0
2017-Jun-21 04:29N 59°57' E 030°11'0 0.0
2017-Jun-21 03:59N 59°57' E 030°11'0 0.0
2017-Jun-21 03:29N 59°57' E 030°11'0 0.0
2017-Jun-21 02:59N 59°57' E 030°11'0 0.0
2017-Jun-21 02:29N 59°57' E 030°11'0 0.0
2017-Jun-21 01:59N 59°57' E 030°11'0 0.0
2017-Jun-21 01:29N 59°57' E 030°11'0 0.0
2017-Jun-21 00:59N 59°57' E 030°11'0 0.0
2017-Jun-21 00:29N 59°57' E 030°11'0 0.0
2017-Jun-20 23:59N 59°57' E 030°11'0 0.0
2017-Jun-20 23:29N 59°57' E 030°11'0 0.0
2017-Jun-20 22:59N 59°57' E 030°11'0 0.0
2017-Jun-20 22:29N 59°57' E 030°11'0 0.0
2017-Jun-20 21:59N 59°57' E 030°11'0 0.0
2017-Jun-20 21:29N 59°57' E 030°11'0 0.0
2017-Jun-20 20:59N 59°57' E 030°11'0 0.0
2017-Jun-20 20:29N 59°57' E 030°11'0 0.0
2017-Jun-20 19:59N 59°57' E 030°11'0 0.0
2017-Jun-20 19:29N 59°57' E 030°11'0 0.0
2017-Jun-20 18:59N 59°57' E 030°11'0 0.0
2017-Jun-20 18:29N 59°57' E 030°11'0 0.0
2017-Jun-20 17:59N 59°57' E 030°11'0 0.0
2017-Jun-20 17:29N 59°57' E 030°11'0 0.0
2017-Jun-20 16:59N 59°57' E 030°11'0 0.0
2017-Jun-20 16:29N 59°57' E 030°11'0 0.0
2017-Jun-20 15:59N 59°57' E 030°11'0 0.0
2017-Jun-20 15:29N 59°57' E 030°11'0 0.0
2017-Jun-20 14:59N 59°57' E 030°11'0 0.0
2017-Jun-20 13:56N 59°57' E 030°11'0 0.0
2017-Jun-20 13:29N 59°57' E 030°11'0 0.0
2017-Jun-20 12:59N 59°57' E 030°11'0 0.0
2017-Jun-20 12:29N 59°57' E 030°11'0 0.0
2017-Jun-20 11:59N 59°57' E 030°11'0 0.0
2017-Jun-20 11:29N 59°57' E 030°11'0 0.0
2017-Jun-20 10:59N 59°57' E 030°11'0 0.0
2017-Jun-20 10:29N 59°57' E 030°11'0 0.0
2017-Jun-20 09:59N 59°57' E 030°11'0 0.0
2017-Jun-20 09:29N 59°57' E 030°11'0 0.0
2017-Jun-20 08:59N 59°57' E 030°11'0 0.0
2017-Jun-20 08:29N 59°57' E 030°11'0 0.0
2017-Jun-20 07:59N 59°57' E 030°11'0 0.0
2017-Jun-20 07:29N 59°57' E 030°11'0 0.0
2017-Jun-20 06:59N 59°57' E 030°11'0 0.0
2017-Jun-20 06:29N 59°57' E 030°11'0 0.0
2017-Jun-20 05:59N 59°57' E 030°11'0 0.0
2017-Jun-20 05:29N 59°57' E 030°11'0 0.0
2017-Jun-20 04:59N 59°57' E 030°11'0 0.0
2017-Jun-20 04:29N 59°57' E 030°11'0 0.0
2017-Jun-20 03:59N 59°57' E 030°11'0 0.2
2017-Jun-20 03:31N 59°57' E 030°11'3 5.5
2017-Jun-20 03:00N 59°56' E 030°06'4 9.0
2017-Jun-20 02:30N 59°56' E 029°57'510.7
2017-Jun-20 02:01N 59°58' E 029°47'5 9.2
2017-Jun-20 01:30N 59°60' E 029°39'611.5
2017-Jun-20 01:00N 60°01' E 029°28'815.2
2017-Jun-20 00:30N 60°02' E 029°12'918.6
2017-Jun-20 00:00N 60°02' E 028°54'918.6
2017-Jun-19 23:30N 60°01' E 028°35'918.3
2017-Jun-19 23:01N 60°06' E 028°19'918.2
2017-Jun-19 22:30N 60°09' E 028°02'918.2
2017-Jun-19 22:01N 60°10' E 027°44'918.8
2017-Jun-19 21:30N 60°05' E 027°28'918.8
2017-Jun-19 21:01N 60°00' E 027°12'917.8
2017-Jun-19 20:30N 59°58' E 026°54'918.5
2017-Jun-19 20:01N 59°59' E 026°36'918.7
2017-Jun-19 19:31N 59°57' E 026°18'1019.1
2017-Jun-19 19:01N 59°54' E 025°59'1019.0
2017-Jun-19 18:30N 59°52' E 025°41'919.0
2017-Jun-19 18:01N 59°50' E 025°22'1019.0
2017-Jun-19 17:30N 59°48' E 025°04'918.6
2017-Jun-19 17:01N 59°43' E 024°49'815.1
2017-Jun-19 16:31N 59°36' E 024°41'714.8
2017-Jun-19 16:01N 59°29' E 024°46'2 4.2
2017-Jun-19 15:30N 59°27' E 024°46'0 0.0
2017-Jun-19 15:00N 59°27' E 024°46'0 0.0
2017-Jun-19 14:00N 59°27' E 024°46'0 0.0
2017-Jun-19 13:30N 59°27' E 024°46'0 0.0
2017-Jun-19 13:00N 59°27' E 024°46'0 0.0
2017-Jun-19 12:30N 59°27' E 024°46'0 0.0
2017-Jun-19 11:54N 59°27' E 024°46'0 0.0
2017-Jun-19 11:30N 59°27' E 024°46'0 0.0
2017-Jun-19 11:00N 59°27' E 024°46'0 0.0
2017-Jun-19 10:30N 59°27' E 024°46'0 0.0
2017-Jun-19 10:00N 59°27' E 024°46'0 0.0
2017-Jun-19 09:30N 59°27' E 024°46'0 0.0
2017-Jun-19 09:00N 59°27' E 024°46'0 0.0
2017-Jun-19 08:30N 59°27' E 024°46'0 0.0
2017-Jun-19 08:00N 59°27' E 024°46'0 0.0
2017-Jun-19 07:30N 59°27' E 024°46'3 6.4
2017-Jun-19 07:01N 59°30' E 024°45'815.8
2017-Jun-19 06:30N 59°37' E 024°37'714.8
2017-Jun-19 06:01N 59°39' E 024°23'917.9
2017-Jun-19 05:30N 59°38' E 024°06'918.2
2017-Jun-19 05:00N 59°35' E 023°48'917.9
2017-Jun-19 04:31N 59°33' E 023°31'918.0
2017-Jun-19 04:01N 59°30' E 023°14'918.1
2017-Jun-19 03:30N 59°28' E 022°57'918.7
2017-Jun-19 03:00N 59°25' E 022°40'918.6
2017-Jun-19 02:30N 59°20' E 022°24'919.0
2017-Jun-19 02:00N 59°15' E 022°09'201289.2
2017-Jun-19 02:00N 59°00' E 021°42'1122.2 270 / 81013.0 5.4 15.011.613.0
2017-Jun-19 01:30N 59°09' E 021°55'918.8
2017-Jun-19 01:00N 59°02' E 021°42'  

Dump ship's entire track history